createdAt,value
2023-05-03T00:02:26.214Z,15.94
2023-05-03T00:04:54.521Z,16.07
2023-05-03T00:07:23.059Z,16.21
2023-05-03T00:09:50.763Z,16.10
2023-05-03T00:12:18.514Z,16.11
2023-05-03T00:14:46.393Z,16.16
2023-05-03T00:17:14.424Z,16.08
2023-05-03T00:19:42.580Z,16.10
2023-05-03T00:22:10.590Z,16.09
2023-05-03T00:24:38.396Z,16.07
2023-05-03T00:27:06.745Z,15.89
2023-05-03T00:29:34.960Z,15.98
2023-05-03T00:32:04.353Z,15.85
2023-05-03T00:34:31.999Z,15.84
2023-05-03T00:36:59.909Z,15.84
2023-05-03T00:39:32.763Z,15.83
2023-05-03T00:42:02.156Z,15.94
2023-05-03T00:44:30.981Z,15.92
2023-05-03T00:46:59.134Z,15.97
2023-05-03T00:49:26.890Z,15.73
2023-05-03T00:51:54.823Z,15.55
2023-05-03T00:54:23.848Z,15.74
2023-05-03T00:56:52.537Z,15.80
2023-05-03T00:59:21.062Z,15.78
2023-05-03T01:01:53.074Z,15.84
2023-05-03T01:04:22.122Z,15.92
2023-05-03T01:07:02.786Z,15.65
2023-05-03T01:09:39.796Z,15.69
2023-05-03T01:12:32.402Z,15.76
2023-05-03T01:15:17.699Z,15.78
2023-05-03T01:18:12.528Z,15.78
2023-05-03T01:20:44.183Z,15.71
2023-05-03T01:23:18.870Z,15.52
2023-05-03T01:25:46.377Z,15.40
2023-05-03T01:28:14.521Z,15.45
2023-05-03T01:30:43.805Z,15.52
2023-05-03T01:33:28.823Z,15.59
2023-05-03T01:36:02.520Z,15.59
2023-05-03T01:38:36.668Z,15.63
2023-05-03T01:41:09.264Z,15.62
2023-05-03T01:43:38.219Z,15.68
2023-05-03T01:46:06.688Z,15.73
2023-05-03T01:48:34.305Z,15.79
2023-05-03T01:51:01.954Z,15.68
2023-05-03T01:53:29.514Z,15.43
2023-05-03T01:55:57.000Z,15.46
2023-05-03T01:58:25.081Z,15.65
2023-05-03T02:00:54.549Z,15.50
2023-05-03T02:03:22.644Z,15.56
2023-05-03T02:05:50.280Z,15.59
2023-05-03T02:08:18.752Z,15.58
2023-05-03T02:10:46.692Z,15.48
2023-05-03T02:13:16.708Z,15.41
2023-05-03T02:15:44.514Z,15.55
2023-05-03T02:18:12.104Z,15.52
2023-05-03T02:20:39.575Z,15.43
2023-05-03T02:23:07.089Z,15.43
2023-05-03T02:25:35.044Z,15.62
2023-05-03T02:28:03.295Z,15.70
2023-05-03T02:30:31.385Z,15.68
2023-05-03T02:32:59.071Z,15.72
2023-05-03T02:35:26.880Z,15.55
2023-05-03T02:37:54.964Z,15.44
2023-05-03T02:40:23.080Z,15.36
2023-05-03T02:42:51.911Z,15.33
2023-05-03T02:45:25.249Z,15.39
2023-05-03T02:47:53.036Z,15.44
2023-05-03T02:50:22.020Z,15.43
2023-05-03T02:52:50.106Z,15.34
2023-05-03T02:55:17.793Z,15.29
2023-05-03T02:57:46.776Z,15.15
2023-05-03T03:00:18.837Z,15.07
2023-05-03T03:02:46.968Z,15.25
2023-05-03T03:05:14.725Z,15.16
2023-05-03T03:07:47.672Z,15.27
2023-05-03T03:10:15.340Z,15.36
2023-05-03T03:12:43.653Z,15.48
2023-05-03T03:15:18.211Z,15.34
2023-05-03T03:17:46.640Z,15.27
2023-05-03T03:20:14.319Z,15.16
2023-05-03T03:22:45.876Z,15.27
2023-05-03T03:25:14.018Z,15.28
2023-05-03T03:27:41.616Z,15.22
2023-05-03T03:30:10.542Z,15.12
2023-05-03T03:32:46.745Z,15.12
2023-05-03T03:35:22.982Z,15.06
2023-05-03T03:37:51.942Z,15.12
2023-05-03T03:40:20.968Z,15.06
2023-05-03T03:42:49.686Z,15.12
2023-05-03T03:45:17.467Z,15.15
2023-05-03T03:47:45.621Z,15.37
2023-05-03T03:50:13.841Z,15.27
2023-05-03T03:52:42.167Z,15.26
2023-05-03T03:55:09.766Z,15.27
2023-05-03T03:57:37.748Z,15.32
2023-05-03T04:00:11.691Z,14.98
2023-05-03T04:02:49.077Z,15.06
2023-05-03T04:05:18.978Z,15.15
2023-05-03T04:07:47.224Z,15.12
2023-05-03T04:10:16.744Z,15.14
2023-05-03T04:12:44.871Z,15.13
2023-05-03T04:15:14.307Z,14.99
2023-05-03T04:17:44.934Z,14.93
2023-05-03T04:20:13.998Z,14.77
2023-05-03T04:22:46.423Z,14.92
2023-05-03T04:25:19.657Z,15.00
2023-05-03T04:27:56.652Z,14.99
2023-05-03T04:30:25.903Z,14.96
2023-05-03T04:32:58.613Z,15.18
2023-05-03T04:35:28.802Z,15.28
2023-05-03T04:37:58.536Z,15.14
2023-05-03T04:40:28.515Z,15.14
2023-05-03T04:43:02.906Z,15.32
2023-05-03T04:45:33.057Z,15.37
2023-05-03T04:48:01.606Z,15.44
2023-05-03T04:50:29.206Z,15.54
2023-05-03T04:52:56.719Z,15.62
2023-05-03T04:55:26.484Z,15.69
2023-05-03T04:57:56.675Z,15.79
2023-05-03T05:00:24.959Z,15.86
2023-05-03T05:02:59.438Z,15.75
2023-05-03T05:05:29.917Z,15.68
2023-05-03T05:08:00.126Z,15.88
2023-05-03T05:10:38.469Z,16.03
2023-05-03T05:13:07.835Z,15.94
2023-05-03T05:15:36.262Z,16.04
2023-05-03T05:18:04.576Z,16.01
2023-05-03T05:20:32.584Z,16.12
2023-05-03T05:23:00.924Z,15.88
2023-05-03T05:25:29.144Z,15.88
2023-05-03T05:27:57.886Z,16.08
2023-05-03T05:30:26.050Z,16.08
2023-05-03T05:32:54.301Z,16.04
2023-05-03T05:35:21.961Z,16.18
2023-05-03T05:37:49.946Z,16.03
2023-05-03T05:40:18.129Z,15.97
2023-05-03T05:42:51.159Z,16.15
2023-05-03T05:45:20.585Z,16.41
2023-05-03T05:47:51.622Z,16.51
2023-05-03T05:50:19.727Z,16.79
2023-05-03T05:52:56.146Z,17.05
2023-05-03T05:55:26.656Z,16.75
2023-05-03T05:57:56.082Z,16.72
2023-05-03T06:00:28.652Z,16.87
2023-05-03T06:02:56.967Z,17.11
2023-05-03T06:05:25.517Z,17.42
2023-05-03T06:07:54.382Z,17.28
2023-05-03T06:10:21.966Z,17.38
2023-05-03T06:12:53.163Z,17.55
2023-05-03T06:15:24.423Z,17.68
2023-05-03T06:17:52.177Z,17.76
2023-05-03T06:20:20.607Z,17.81
2023-05-03T06:22:50.968Z,17.90
2023-05-03T06:25:18.670Z,18.03
2023-05-03T06:27:49.961Z,18.19
2023-05-03T06:30:20.404Z,18.17
2023-05-03T06:32:49.426Z,18.23
2023-05-03T06:35:19.794Z,18.07
2023-05-03T06:37:48.528Z,18.10
2023-05-03T06:40:16.173Z,17.71
2023-05-03T06:42:44.164Z,18.06
2023-05-03T06:45:15.599Z,18.21
2023-05-03T06:47:43.802Z,18.24
2023-05-03T06:50:11.968Z,18.18
2023-05-03T06:52:39.925Z,18.06
2023-05-03T06:55:08.974Z,18.34
2023-05-03T06:57:36.427Z,18.02
2023-05-03T07:00:07.368Z,18.38
2023-05-03T07:02:35.758Z,18.56
2023-05-03T07:05:03.464Z,18.56
2023-05-03T07:07:31.137Z,18.83
2023-05-03T07:09:59.223Z,18.83
2023-05-03T07:12:28.461Z,18.80
2023-05-03T07:14:56.700Z,18.79
2023-05-03T07:17:24.910Z,18.96
2023-05-03T07:19:53.329Z,18.83
2023-05-03T07:22:25.024Z,19.07
2023-05-03T07:24:54.703Z,19.36
2023-05-03T07:27:22.856Z,19.23
2023-05-03T07:29:50.415Z,19.53
2023-05-03T07:32:18.170Z,19.55
2023-05-03T07:34:45.731Z,19.41
2023-05-03T07:37:13.758Z,19.29
2023-05-03T07:39:41.809Z,19.09
2023-05-03T07:42:10.136Z,18.98
2023-05-03T07:44:37.663Z,19.39
2023-05-03T07:47:05.640Z,20.07
2023-05-03T07:49:35.857Z,20.06
2023-05-03T07:52:04.061Z,20.73
2023-05-03T07:54:31.721Z,20.70
2023-05-03T07:56:59.530Z,20.58
2023-05-03T07:59:27.411Z,20.71
2023-05-03T08:01:55.668Z,20.78
2023-05-03T08:04:24.711Z,20.90
2023-05-03T08:06:52.662Z,20.92
2023-05-03T08:09:20.820Z,21.17
2023-05-03T08:11:48.825Z,21.05
2023-05-03T08:14:16.372Z,21.53
2023-05-03T08:16:44.511Z,21.75
2023-05-03T08:19:12.574Z,22.13
2023-05-03T08:21:40.239Z,22.39
2023-05-03T08:24:10.212Z,22.66
2023-05-03T08:26:38.057Z,22.91
2023-05-03T08:29:05.778Z,22.43
2023-05-03T08:31:33.651Z,22.74
2023-05-03T08:34:01.696Z,22.98
2023-05-03T08:36:29.562Z,23.15
2023-05-03T08:38:57.646Z,23.11
2023-05-03T08:41:30.870Z,23.04
2023-05-03T08:44:02.070Z,23.15
2023-05-03T08:46:29.694Z,23.02
2023-05-03T08:48:59.985Z,22.29
2023-05-03T08:51:28.243Z,22.18
2023-05-03T08:53:56.116Z,22.48
2023-05-03T08:56:35.354Z,22.98
2023-05-03T08:59:08.000Z,23.30
2023-05-03T09:01:37.206Z,23.40
2023-05-03T09:04:06.149Z,22.96
2023-05-03T09:06:34.532Z,22.75
2023-05-03T09:09:08.684Z,22.49
2023-05-03T09:11:39.137Z,22.88
2023-05-03T09:14:13.983Z,23.10
2023-05-03T09:16:44.723Z,22.12
2023-05-03T09:19:14.292Z,22.25
2023-05-03T09:21:44.087Z,22.41
2023-05-03T09:24:21.049Z,21.92
2023-05-03T09:26:51.177Z,22.57
2023-05-03T09:29:35.883Z,22.80
2023-05-03T09:32:08.841Z,23.27
2023-05-03T09:34:37.468Z,23.51
2023-05-03T09:37:05.077Z,24.54
2023-05-03T09:39:33.763Z,23.19
2023-05-03T09:42:15.383Z,23.29
2023-05-03T09:44:53.939Z,23.90
2023-05-03T09:47:22.518Z,23.98
2023-05-03T09:49:50.714Z,24.68
2023-05-03T09:52:18.294Z,23.14
2023-05-03T09:54:46.585Z,23.48
2023-05-03T09:57:15.103Z,23.76
2023-05-03T09:59:46.290Z,24.51
2023-05-03T10:02:15.045Z,25.41
2023-05-03T10:04:47.185Z,26.26
2023-05-03T10:07:18.357Z,25.73
2023-05-03T10:09:48.242Z,26.82
2023-05-03T10:12:19.187Z,27.55
2023-05-03T10:14:49.317Z,28.23
2023-05-03T10:17:32.001Z,27.43
2023-05-03T10:20:21.437Z,27.90
2023-05-03T10:23:21.266Z,28.07
2023-05-03T10:26:07.347Z,29.15
2023-05-03T10:28:37.115Z,28.76
2023-05-03T10:31:04.880Z,28.70
2023-05-03T10:33:35.194Z,29.93
2023-05-03T10:36:10.618Z,29.91
2023-05-03T10:38:39.118Z,30.78
2023-05-03T10:41:07.915Z,28.10
2023-05-03T10:43:35.876Z,27.36
2023-05-03T10:46:05.552Z,27.20
2023-05-03T10:48:34.707Z,30.05
2023-05-03T10:51:29.050Z,29.23
2023-05-03T10:53:56.742Z,29.81
2023-05-03T10:56:24.607Z,30.76
2023-05-03T10:58:56.116Z,29.46
2023-05-03T11:01:27.188Z,29.86
2023-05-03T11:04:01.005Z,29.63
2023-05-03T11:06:36.202Z,29.49
2023-05-03T11:09:09.472Z,27.64
2023-05-03T11:11:39.521Z,29.04
2023-05-03T11:14:08.715Z,28.82
2023-05-03T11:16:37.258Z,27.27
2023-05-03T11:19:06.588Z,27.43
2023-05-03T11:21:34.200Z,26.93
2023-05-03T11:24:02.100Z,27.82
2023-05-03T11:26:36.213Z,28.42
2023-05-03T11:29:04.262Z,27.77
2023-05-03T11:31:32.662Z,27.83
2023-05-03T11:34:00.794Z,27.64
2023-05-03T11:36:30.589Z,27.59
2023-05-03T11:38:58.638Z,26.06
2023-05-03T11:41:27.360Z,25.94
2023-05-03T11:44:04.015Z,26.12
2023-05-03T11:46:38.107Z,27.45
2023-05-03T11:49:06.294Z,29.65
2023-05-03T11:51:35.254Z,30.00
2023-05-03T11:54:17.044Z,28.41
2023-05-03T11:56:55.528Z,28.03
2023-05-03T11:59:35.884Z,29.96
2023-05-03T12:02:05.617Z,33.50
2023-05-03T12:04:33.695Z,34.11
2023-05-03T12:07:05.224Z,33.53
2023-05-03T12:09:35.343Z,31.93
2023-05-03T12:12:06.217Z,30.13
2023-05-03T12:15:00.635Z,28.56
2023-05-03T12:17:38.750Z,26.89
2023-05-03T12:23:09.863Z,29.81
2023-05-03T12:25:40.320Z,30.62
2023-05-03T12:28:20.430Z,30.81
2023-05-03T12:30:49.038Z,30.40
2023-05-03T12:33:21.674Z,28.21
2023-05-03T12:35:53.531Z,27.81
2023-05-03T12:38:24.161Z,27.69
2023-05-03T12:40:53.756Z,28.09
2023-05-03T12:43:22.176Z,26.33
2023-05-03T12:46:04.017Z,28.07
2023-05-03T12:48:37.800Z,28.38
2023-05-03T12:53:38.841Z,27.24
2023-05-03T12:56:07.344Z,27.05
2023-05-03T12:58:57.972Z,26.88
2023-05-03T13:02:05.993Z,26.84
2023-05-03T13:06:47.048Z,26.78
2023-05-03T13:09:21.784Z,26.37
2023-05-03T13:11:53.010Z,26.12
2023-05-03T13:14:21.936Z,26.43
2023-05-03T13:16:49.549Z,26.77
2023-05-03T13:19:17.401Z,27.12
2023-05-03T13:21:48.515Z,28.78
2023-05-03T13:24:16.877Z,29.37
2023-05-03T13:26:45.025Z,28.08
2023-05-03T13:29:12.787Z,28.48
2023-05-03T13:31:40.934Z,27.38
2023-05-03T13:34:08.623Z,28.26
2023-05-03T13:36:36.879Z,28.92
2023-05-03T13:39:04.538Z,32.83
2023-05-03T13:41:32.176Z,31.63
2023-05-03T13:44:00.290Z,33.89
2023-05-03T13:46:27.849Z,35.17
2023-05-03T13:48:56.696Z,33.54
2023-05-03T13:51:25.708Z,31.50
2023-05-03T13:53:53.342Z,28.03
2023-05-03T13:56:21.697Z,27.86
2023-05-03T13:58:49.185Z,29.05
2023-05-03T14:01:17.304Z,32.65
2023-05-03T14:03:47.387Z,33.36
2023-05-03T14:06:15.029Z,32.35
2023-05-03T14:08:42.621Z,29.07
2023-05-03T14:11:18.085Z,26.32
2023-05-03T14:13:56.234Z,26.00
2023-05-03T14:16:40.007Z,25.77
2023-05-03T14:19:14.213Z,25.91
2023-05-03T14:21:43.246Z,25.65
2023-05-03T14:24:11.004Z,25.35
2023-05-03T14:26:39.081Z,25.08
2023-05-03T14:29:07.283Z,25.24
2023-05-03T14:31:36.634Z,24.89
2023-05-03T14:34:04.371Z,24.93
2023-05-03T14:36:36.312Z,24.78
2023-05-03T14:39:05.054Z,24.68
2023-05-03T14:41:34.188Z,24.51
2023-05-03T14:44:02.293Z,24.70
2023-05-03T14:46:29.906Z,23.89
2023-05-03T14:48:57.525Z,23.83
2023-05-03T14:51:25.103Z,24.19
2023-05-03T14:53:53.083Z,23.87
2023-05-03T14:56:21.282Z,23.93
2023-05-03T14:58:48.727Z,23.92
2023-05-03T15:01:20.594Z,23.72
2023-05-03T15:03:49.373Z,23.85
2023-05-03T15:06:24.598Z,24.46
2023-05-03T15:08:52.573Z,23.76
2023-05-03T15:11:20.214Z,23.21
2023-05-03T15:13:48.528Z,22.86
2023-05-03T15:16:17.326Z,22.15
2023-05-03T15:18:51.304Z,22.01
2023-05-03T15:21:19.987Z,21.72
2023-05-03T15:23:49.652Z,21.28
2023-05-03T15:26:17.984Z,21.63
2023-05-03T15:28:46.333Z,21.87
2023-05-03T15:31:14.850Z,22.19
2023-05-03T15:33:43.873Z,22.47
2023-05-03T15:36:13.036Z,23.30
2023-05-03T15:38:41.639Z,24.13
2023-05-03T15:41:09.948Z,24.94
2023-05-03T15:43:37.957Z,25.24
2023-05-03T15:46:05.704Z,26.01
2023-05-03T15:48:33.883Z,25.54
2023-05-03T15:51:01.868Z,23.99
2023-05-03T15:53:29.980Z,24.80
2023-05-03T15:55:58.136Z,25.74
2023-05-03T15:58:32.098Z,28.74
2023-05-03T16:01:00.271Z,30.41
2023-05-03T16:03:29.791Z,32.88
2023-05-03T16:05:57.619Z,32.74
2023-05-03T16:08:25.369Z,33.85
2023-05-03T16:10:53.302Z,33.49
2023-05-03T16:13:21.285Z,32.42
2023-05-03T16:15:52.458Z,29.12
2023-05-03T16:18:21.065Z,28.35
2023-05-03T16:20:50.458Z,30.02
2023-05-03T16:23:18.053Z,31.55
2023-05-03T16:25:45.687Z,29.98
2023-05-03T16:28:13.484Z,27.43
2023-05-03T16:30:42.615Z,26.22
2023-05-03T16:33:10.404Z,26.08
2023-05-03T16:35:38.883Z,27.69
2023-05-03T16:38:07.329Z,29.06
2023-05-03T16:40:37.522Z,27.97
2023-05-03T16:43:07.083Z,26.99
2023-05-03T16:45:35.124Z,26.08
2023-05-03T16:48:06.079Z,25.19
2023-05-03T16:50:37.232Z,24.71
2023-05-03T16:53:04.853Z,25.43
2023-05-03T16:55:33.343Z,24.71
2023-05-03T16:58:00.905Z,24.54
2023-05-03T17:00:28.977Z,24.38
2023-05-03T17:02:57.011Z,24.74
2023-05-03T17:05:26.203Z,24.21
2023-05-03T17:07:54.398Z,23.49
2023-05-03T17:10:22.014Z,23.28
2023-05-03T17:12:49.634Z,23.32
2023-05-03T17:15:17.448Z,22.49
2023-05-03T17:17:45.613Z,22.41
2023-05-03T17:20:13.389Z,22.46
2023-05-03T17:22:41.348Z,22.59
2023-05-03T17:25:09.774Z,22.66
2023-05-03T17:27:38.161Z,22.68
2023-05-03T17:30:06.877Z,22.46
2023-05-03T17:32:35.034Z,22.13
2023-05-03T17:35:03.169Z,22.04
2023-05-03T17:37:31.108Z,22.10
2023-05-03T17:39:58.672Z,21.82
2023-05-03T17:42:26.580Z,21.89
2023-05-03T17:44:54.935Z,21.99
2023-05-03T17:47:25.174Z,21.96
2023-05-03T17:49:53.298Z,21.60
2023-05-03T17:52:20.874Z,21.65
2023-05-03T17:54:48.589Z,21.74
2023-05-03T17:57:16.934Z,21.67
2023-05-03T17:59:44.953Z,21.69
2023-05-03T18:02:13.501Z,21.43
2023-05-03T18:04:41.007Z,21.23
2023-05-03T18:07:08.692Z,21.09
2023-05-03T18:09:36.424Z,21.08
2023-05-03T18:12:04.195Z,21.00
2023-05-03T18:14:34.937Z,20.98
2023-05-03T18:17:02.821Z,20.87
2023-05-03T18:19:31.322Z,20.70
2023-05-03T18:21:59.283Z,20.74
2023-05-03T18:24:27.044Z,20.71
2023-05-03T18:26:54.648Z,20.83
2023-05-03T18:29:23.072Z,20.77
2023-05-03T18:31:52.427Z,20.97
2023-05-03T18:34:20.591Z,20.72
2023-05-03T18:36:48.612Z,20.62
2023-05-03T18:39:17.284Z,20.40
2023-05-03T18:41:45.037Z,20.41
2023-05-03T18:44:13.021Z,20.34
2023-05-03T18:46:40.638Z,20.41
2023-05-03T18:49:09.880Z,20.51
2023-05-03T18:51:38.456Z,20.57
2023-05-03T18:54:06.559Z,20.63
2023-05-03T18:56:34.759Z,20.53
2023-05-03T18:59:02.716Z,20.48
2023-05-03T19:01:31.110Z,20.41
2023-05-03T19:03:58.671Z,20.31
2023-05-03T19:06:27.322Z,20.21
2023-05-03T19:08:55.861Z,20.23
2023-05-03T19:11:25.237Z,20.14
2023-05-03T19:13:53.838Z,20.41
2023-05-03T19:16:21.450Z,20.39
2023-05-03T19:18:49.480Z,20.23
2023-05-03T19:21:17.635Z,20.40
2023-05-03T19:23:45.218Z,20.48
2023-05-03T19:26:13.394Z,20.55
2023-05-03T19:28:41.113Z,20.50
2023-05-03T19:31:09.052Z,20.60
2023-05-03T19:33:38.089Z,20.27
2023-05-03T19:36:08.508Z,20.48
2023-05-03T19:38:36.617Z,20.61
2023-05-03T19:41:12.782Z,20.33
2023-05-03T19:43:41.392Z,20.35
2023-05-03T19:46:09.518Z,20.52
2023-05-03T19:48:37.475Z,20.39
2023-05-03T19:51:05.959Z,20.39
2023-05-03T19:53:33.848Z,20.41
2023-05-03T19:56:03.048Z,19.89
2023-05-03T19:58:32.312Z,20.03
2023-05-03T20:00:59.847Z,19.94
2023-05-03T20:03:27.786Z,19.94
2023-05-03T20:05:55.650Z,20.10
2023-05-03T20:08:24.334Z,20.13
2023-05-03T20:10:52.147Z,20.04
2023-05-03T20:13:20.269Z,19.98
2023-05-03T20:15:49.161Z,19.72
2023-05-03T20:18:17.327Z,19.80
2023-05-03T20:20:45.855Z,19.75
2023-05-03T20:23:14.988Z,19.72
2023-05-03T20:25:43.313Z,19.73
2023-05-03T20:28:11.405Z,19.69
2023-05-03T20:30:38.997Z,19.65
2023-05-03T20:33:07.272Z,19.54
2023-05-03T20:35:36.974Z,19.43
2023-05-03T20:38:08.238Z,19.44
2023-05-03T20:40:36.390Z,19.63
2023-05-03T20:43:04.489Z,19.79
2023-05-03T20:45:32.197Z,19.80
2023-05-03T20:48:00.214Z,19.87
2023-05-03T20:50:28.236Z,19.96
2023-05-03T20:52:56.744Z,19.97
2023-05-03T20:55:24.330Z,19.89
2023-05-03T20:57:52.084Z,19.89
2023-05-03T21:00:22.237Z,19.75
2023-05-03T21:02:53.710Z,19.93
2023-05-03T21:05:22.240Z,20.03
2023-05-03T21:07:50.150Z,20.02
2023-05-03T21:10:18.125Z,20.02
2023-05-03T21:12:45.969Z,19.97
2023-05-03T21:15:13.547Z,19.94
2023-05-03T21:17:41.149Z,19.87
2023-05-03T21:20:09.384Z,19.83
2023-05-03T21:22:37.739Z,19.79
2023-05-03T21:25:06.720Z,19.87
2023-05-03T21:27:34.756Z,19.77
2023-05-03T21:30:02.698Z,19.60
2023-05-03T21:32:30.760Z,19.61
2023-05-03T21:34:58.660Z,19.65
2023-05-03T21:37:26.799Z,19.71
2023-05-03T21:40:01.561Z,19.56
2023-05-03T21:42:30.366Z,19.47
2023-05-03T21:44:57.935Z,19.51
2023-05-03T21:47:25.416Z,19.50
2023-05-03T21:49:53.507Z,19.53
2023-05-03T21:52:21.401Z,19.59
2023-05-03T21:54:49.160Z,19.36
2023-05-03T21:57:18.837Z,19.37
2023-05-03T21:59:47.427Z,19.42
2023-05-03T22:02:14.992Z,19.21
2023-05-03T22:04:43.628Z,18.94
2023-05-03T22:07:11.604Z,19.02
2023-05-03T22:09:39.233Z,18.82
2023-05-03T22:12:22.322Z,18.75
2023-05-03T22:14:52.350Z,18.80
2023-05-03T22:17:20.181Z,18.81
2023-05-03T22:19:48.147Z,18.93
2023-05-03T22:22:16.023Z,18.94
2023-05-03T22:24:43.868Z,18.93
2023-05-03T22:27:11.326Z,19.06
2023-05-03T22:29:39.416Z,19.09
2023-05-03T22:32:07.985Z,18.59
2023-05-03T22:34:36.274Z,18.64
2023-05-03T22:37:03.878Z,18.78
2023-05-03T22:39:32.403Z,18.92
2023-05-03T22:42:00.820Z,18.86
2023-05-03T22:44:28.719Z,18.65
2023-05-03T22:46:56.391Z,18.67
2023-05-03T22:49:24.752Z,18.53
2023-05-03T22:51:52.376Z,18.52
2023-05-03T22:54:21.805Z,18.49
2023-05-03T22:56:50.682Z,18.53
2023-05-03T22:59:19.204Z,18.68
2023-05-03T23:01:49.450Z,18.74
2023-05-03T23:04:17.166Z,18.41
2023-05-03T23:06:45.291Z,18.67
2023-05-03T23:09:13.037Z,18.62
2023-05-03T23:11:40.958Z,18.50
2023-05-03T23:14:08.480Z,18.20
2023-05-03T23:16:36.095Z,18.10
2023-05-03T23:19:04.174Z,18.14
2023-05-03T23:21:32.463Z,18.41
2023-05-03T23:24:00.240Z,18.49
2023-05-03T23:26:28.312Z,18.52
2023-05-03T23:28:56.283Z,18.41
2023-05-03T23:31:24.443Z,18.37
2023-05-03T23:33:52.463Z,18.46
2023-05-03T23:36:20.068Z,18.46
2023-05-03T23:38:50.207Z,18.30
2023-05-03T23:41:18.314Z,18.14
2023-05-03T23:43:46.317Z,18.08
2023-05-03T23:46:14.783Z,17.99
2023-05-03T23:48:42.791Z,18.16
2023-05-03T23:51:10.972Z,18.23
2023-05-03T23:53:39.114Z,18.30
2023-05-03T23:56:06.940Z,18.45
2023-05-03T23:58:34.451Z,18.40
